Tropical Cyclones
[Index]
Main Index Home Page Stock Weather Photos Extreme Storms Discussion Storm News and Storm Chasing Reports Tropical Cyclones / Hurricanes / Typhoons Weather Data and Links Wild Fires / Bushfires Weather Observation Techniques Weather Picture Catalogue Tornado Pictures and Reports Stock Video Footage and DVDs for sale
Season 1960-1961 Tropical Cyclone 196126 Track Map
Season 1960-1961 Summaries: [BoM-AU] [JTWC-AU] [JTWC-SIO] [JTWC-SPAC] [JTWC-SH]
<<- Previous TC | JTWC 1960-1961 Season | Next TC ->>

click for intensity scale information  Lat/long Grid: Show Hide

 Date Labels: Show Hide

Joint Typhoon Warning Centre Cyclone Data

Name: 196126
Number: 420 / 6126

12 Mar 1961 00:00 UTC to 20 Mar 1961 00:00 UTC

    date/time    lat    long     hPa   cat  kts
1961-03-12 00   14.5   173.5W                             
1961-03-12 06   14.3   173.3W                             
1961-03-12 12   14.0   173.0W                             
1961-03-12 18   13.5   172.6W                             
1961-03-13 00   13.0   172.3W                             
1961-03-13 06   13.0   172.1W                             
1961-03-13 12   13.2   172.0W                             
1961-03-13 18   13.4   172.0W                             
1961-03-14 00   13.7   172.0W                             
1961-03-14 06   14.3   172.1W                             
1961-03-14 12   15.0   172.2W                             
1961-03-14 18   15.5   172.4W                             
1961-03-15 00   16.0   172.6W                             
1961-03-15 06   16.5   173.2W                             
1961-03-15 12   17.0   173.8W                             
1961-03-15 18   17.6   174.0W                             
1961-03-16 00   18.3   174.1W                             
1961-03-16 06   18.9   174.2W                             
1961-03-16 12   19.5   174.3W                             
1961-03-16 18   19.9   174.3W                             
1961-03-17 00   20.3   174.0W                             
1961-03-17 06   20.9   173.5W                             
1961-03-17 12   21.6   172.8W                             
1961-03-17 18   22.0   172.1W                             
1961-03-18 00   22.4   171.2W                             
1961-03-18 06   23.4   169.6W                             
1961-03-18 12   24.5   167.8W                             
1961-03-18 18   25.3   166.4W                             
1961-03-19 00   26.2   165.0W                             
1961-03-19 06   27.1   163.8W                             
1961-03-19 12   28.0   162.5W                             
1961-03-19 18   28.7   161.3W                             
1961-03-20 00   29.1   160.0W                             
Winds are 1-min average.

Tropical cyclone tracks developed by Michael Bath using data from the Joint Typhoon Warning Centre Best Tracks and Google Maps.


[Australian Severe Weather index] [Copyright Notice] [Email Contacts] [Search This Site] [Privacy Policy]
Document: tropical_cyclone_196126.htm Updated: 18 September 2016